Time;durP1;ratioP1;P1;durP2;ratioP2;P2;SDS_P1;SDS_P2;PMS_P1;PMS_P2;Temp;Humidity;BMP_temperature;BMP_pressure;BME280_temperature;BME280_humidity;BME280_pressure;Samples;Min_cycle;Max_cycle;Signal;HPM_P1;HPM_P2
2024/01/06 00:00:49;;;;;;;63.92;38.83;;;;;;;4.97;100.00;100132.22;4980278;28;20064;-80
2024/01/06 00:03:15;;;;;;;61.05;38.35;;;;;;;4.97;100.00;100129.56;4976662;28;20057;-80
2024/01/06 00:05:40;;;;;;;63.42;39.08;;;;;;;4.98;100.00;100143.63;4975514;28;20053;-80
2024/01/06 00:08:06;;;;;;;64.38;39.17;;;;;;;4.98;100.00;100144.47;4983339;28;20030;-79
2024/01/06 00:10:31;;;;;;;63.25;38.40;;;;;;;4.92;100.00;100139.41;4982361;28;20843;-81
2024/01/06 00:12:57;;;;;;;59.92;36.20;;;;;;;4.97;100.00;100150.66;4984157;28;20042;-80
2024/01/06 00:15:23;;;;;;;56.30;36.38;;;;;;;4.94;100.00;100152.56;4963265;28;20188;-80
2024/01/06 00:17:48;;;;;;;54.97;35.03;;;;;;;4.91;100.00;100155.31;4984106;28;20440;-80
2024/01/06 00:20:14;;;;;;;52.92;34.67;;;;;;;4.79;100.00;100147.88;4982759;28;20039;-80
2024/01/06 00:22:41;;;;;;;52.42;34.63;;;;;;;4.77;100.00;100165.53;4983821;28;20120;-79
2024/01/06 00:25:06;;;;;;;54.22;34.13;;;;;;;4.64;100.00;100157.19;4979982;28;20057;-80
2024/01/06 00:27:32;;;;;;;53.72;35.30;;;;;;;4.71;100.00;100156.91;4983081;28;20082;-80
2024/01/06 00:29:57;;;;;;;51.75;34.60;;;;;;;4.73;100.00;100168.28;4961869;28;20048;-80
2024/01/06 00:32:22;;;;;;;50.35;32.63;;;;;;;4.70;100.00;100163.13;4983674;28;20041;-80
2024/01/06 00:34:48;;;;;;;46.00;31.58;;;;;;;4.68;100.00;100161.44;4983389;28;20042;-80
2024/01/06 00:37:13;;;;;;;41.42;29.05;;;;;;;4.69;100.00;100165.81;4970699;28;20066;-80
2024/01/06 00:39:38;;;;;;;44.50;29.58;;;;;;;4.64;100.00;100159.84;4982716;28;20057;-80
2024/01/06 00:42:04;;;;;;;41.80;27.25;;;;;;;4.63;100.00;100163.38;4983470;28;20112;-79
2024/01/06 00:44:29;;;;;;;38.42;26.52;;;;;;;4.59;100.00;100165.28;4982984;28;20570;-80
2024/01/06 00:46:54;;;;;;;34.42;23.50;;;;;;;4.48;100.00;100165.69;4982731;28;20042;-80
2024/01/06 00:49:20;;;;;;;33.35;23.85;;;;;;;4.49;100.00;100167.41;4971940;28;20041;-79
2024/01/06 00:51:45;;;;;;;34.22;24.02;;;;;;;4.47;100.00;100178.91;4982711;28;20037;-79
2024/01/06 00:54:11;;;;;;;31.75;23.33;;;;;;;4.30;100.00;100168.97;4963644;28;20629;-79
2024/01/06 00:56:37;;;;;;;34.85;23.17;;;;;;;4.34;100.00;100181.13;4976435;28;20352;-79
2024/01/06 00:59:02;;;;;;;35.85;25.40;;;;;;;4.19;100.00;100164.09;4980222;28;20545;-79
2024/01/06 01:01:27;;;;;;;37.47;25.55;;;;;;;4.28;100.00;100176.09;4981247;28;20625;-80
2024/01/06 01:03:52;;;;;;;35.78;25.42;;;;;;;4.21;100.00;100171.94;4953247;28;20046;-80
2024/01/06 01:06:18;;;;;;;39.15;26.48;;;;;;;4.24;100.00;100179.75;4976962;28;20035;-80
2024/01/06 01:08:43;;;;;;;41.00;28.40;;;;;;;4.18;100.00;100183.47;4993302;28;20474;-79
2024/01/06 01:11:08;;;;;;;42.03;28.65;;;;;;;4.12;100.00;100182.81;4982995;28;20124;-80
2024/01/06 01:13:34;;;;;;;47.40;30.52;;;;;;;4.09;100.00;100186.41;4983021;28;20081;-79
2024/01/06 01:15:59;;;;;;;52.05;33.55;;;;;;;4.07;100.00;100192.66;4981423;28;21226;-80
2024/01/06 01:18:24;;;;;;;45.95;30.20;;;;;;;3.89;100.00;100187.09;4982068;28;20121;-80
2024/01/06 01:20:50;;;;;;;49.42;30.80;;;;;;;4.02;100.00;100202.47;4990663;28;20061;-80
2024/01/06 01:23:15;;;;;;;54.58;32.05;;;;;;;4.00;100.00;100215.69;4981116;28;20069;-80
2024/01/06 01:25:40;;;;;;;50.08;30.75;;;;;;;3.97;100.00;100223.69;4982058;28;20093;-80
2024/01/06 01:28:06;;;;;;;48.10;31.25;;;;;;;3.93;100.00;100220.31;4975011;28;20042;-79
2024/01/06 01:30:32;;;;;;;50.40;31.10;;;;;;;3.88;100.00;100218.72;4981217;28;20041;-79
2024/01/06 01:32:57;;;;;;;49.83;30.55;;;;;;;3.78;100.00;100220.81;4976956;28;20045;-79
2024/01/06 01:35:23;;;;;;;48.75;31.15;;;;;;;3.75;100.00;100232.28;4981616;28;20030;-79
2024/01/06 01:37:48;;;;;;;52.58;31.48;;;;;;;3.66;100.00;100222.06;4962474;28;20046;-79
2024/01/06 01:40:14;;;;;;;53.50;31.25;;;;;;;3.64;100.00;100223.03;4963576;28;20054;-80
2024/01/06 01:42:43;;;;;;;54.33;32.80;;;;;;;3.60;100.00;100232.81;4981847;28;20062;-79
2024/01/06 01:45:08;;;;;;;57.55;32.50;;;;;;;3.53;100.00;100233.91;4961756;28;20030;-79
2024/01/06 01:47:33;;;;;;;56.72;31.88;;;;;;;3.43;100.00;100230.72;4980918;28;20859;-80
2024/01/06 01:50:00;;;;;;;54.25;32.60;;;;;;;3.43;100.00;100240.38;4982189;28;20411;-80
2024/01/06 01:52:26;;;;;;;57.92;32.97;;;;;;;3.40;100.00;100245.72;4979934;28;20121;-80
2024/01/06 01:54:52;;;;;;;54.45;31.55;;;;;;;3.40;100.00;100237.81;4981714;28;20093;-80
2024/01/06 01:57:18;;;;;;;54.65;32.63;;;;;;;3.39;100.00;100242.22;4980867;28;20057;-79
2024/01/06 01:59:44;;;;;;;60.28;33.28;;;;;;;3.47;100.00;100256.00;4960981;28;20437;-80
2024/01/06 02:02:18;;;;;;;57.72;33.47;;;;;;;3.52;100.00;100250.59;5088689;27;20385;-80
2024/01/06 02:04:45;;;;;;;55.45;32.08;;;;;;;3.57;100.00;100253.09;5085227;28;20115;-80
2024/01/06 02:07:10;;;;;;;59.45;33.53;;;;;;;3.65;100.00;100254.56;5076358;28;20046;-80
2024/01/06 02:09:36;;;;;;;60.00;33.10;;;;;;;3.50;100.00;100221.69;5082546;28;20532;-80
2024/01/06 02:12:02;;;;;;;58.80;32.45;;;;;;;3.74;100.00;100259.53;5079983;28;20602;-80
2024/01/06 02:14:27;;;;;;;56.40;31.85;;;;;;;3.82;100.00;100264.56;5079246;28;20036;-80
2024/01/06 02:16:53;;;;;;;53.53;32.03;;;;;;;3.83;100.00;100260.16;5090141;28;20035;-80
2024/01/06 02:19:18;;;;;;;52.88;30.55;;;;;;;3.85;100.00;100275.00;5078164;28;20032;-80
2024/01/06 02:21:47;;;;;;;52.45;31.33;;;;;;;3.87;100.00;100282.81;5079531;28;20477;-80
2024/01/06 02:24:13;;;;;;;46.45;28.80;;;;;;;3.89;100.00;100281.88;5084508;28;20052;-80
2024/01/06 02:26:38;;;;;;;46.83;28.88;;;;;;;3.90;100.00;100291.50;5084903;28;20071;-80
2024/01/06 02:29:03;;;;;;;42.03;26.85;;;;;;;3.91;100.00;100284.44;5079775;28;20032;-80
2024/01/06 02:31:29;;;;;;;45.80;27.52;;;;;;;3.92;100.00;100294.06;5079882;28;20395;-80
2024/01/06 02:33:54;;;;;;;38.00;25.63;;;;;;;3.91;100.00;100295.84;5084476;28;20029;-80
2024/01/06 02:36:19;;;;;;;35.90;25.20;;;;;;;3.89;100.00;100299.44;5079607;28;20174;-80
2024/01/06 02:38:45;;;;;;;37.63;25.30;;;;;;;3.84;100.00;100285.56;5078956;28;20032;-79
2024/01/06 02:41:11;;;;;;;35.25;24.40;;;;;;;3.95;100.00;100308.00;5073019;28;20116;-79
2024/01/06 02:43:36;;;;;;;34.17;23.45;;;;;;;3.82;100.00;100293.50;5086950;28;20034;-79
2024/01/06 02:46:02;;;;;;;38.72;24.70;;;;;;;3.91;100.00;100313.41;5083327;28;20028;-80
2024/01/06 02:48:29;;;;;;;32.03;22.50;;;;;;;3.85;100.00;100311.84;5076613;28;20032;-80
2024/01/06 02:50:55;;;;;;;28.88;21.67;;;;;;;3.85;100.00;100322.38;5078905;28;20028;-79
2024/01/06 02:53:20;;;;;;;28.88;21.50;;;;;;;3.87;100.00;100338.97;5081450;28;20031;-79
2024/01/06 02:55:45;;;;;;;28.42;20.35;;;;;;;3.84;100.00;100344.31;5083308;28;20469;-79
2024/01/06 02:58:11;;;;;;;28.90;20.58;;;;;;;3.79;100.00;100351.50;5077327;28;20139;-79
2024/01/06 03:00:36;;;;;;;26.83;20.45;;;;;;;3.71;100.00;100337.72;5067926;28;20474;-79
2024/01/06 03:03:02;;;;;;;23.02;18.80;;;;;;;3.72;100.00;100352.59;5084189;28;20035;-79
2024/01/06 03:05:27;;;;;;;22.60;18.50;;;;;;;3.67;100.00;100357.16;5077362;28;20028;-80
2024/01/06 03:07:52;;;;;;;25.80;19.67;;;;;;;3.63;100.00;100352.88;5078380;28;20028;-79
2024/01/06 03:10:17;;;;;;;23.20;18.30;;;;;;;3.68;100.00;100356.25;5076758;28;20042;-79
2024/01/06 03:12:43;;;;;;;24.13;17.60;;;;;;;3.65;100.00;100364.25;5070308;28;20039;-80
2024/01/06 03:15:08;;;;;;;22.83;18.02;;;;;;;3.64;100.00;100363.38;5067971;28;20040;-79
2024/01/06 03:17:34;;;;;;;21.92;17.85;;;;;;;3.67;100.00;100371.16;5071709;28;20564;-80
2024/01/06 03:19:59;;;;;;;21.92;17.17;;;;;;;3.60;100.00;100353.00;5060137;28;20248;-80
2024/01/06 03:22:24;;;;;;;21.50;16.90;;;;;;;3.68;100.00;100374.69;5058555;28;20374;-80
2024/01/06 03:24:50;;;;;;;20.10;16.63;;;;;;;3.70;100.00;100365.81;5064774;28;20040;-80
2024/01/06 03:27:15;;;;;;;21.10;16.65;;;;;;;3.64;100.00;100367.78;5067537;28;20030;-79
2024/01/06 03:29:41;;;;;;;21.05;17.52;;;;;;;3.51;100.00;100367.25;5056442;28;20032;-79
2024/01/06 03:32:06;;;;;;;21.80;17.48;;;;;;;3.54;100.00;100380.34;5066872;28;20173;-79
2024/01/06 03:34:31;;;;;;;19.35;16.33;;;;;;;3.48;100.00;100386.66;5073915;28;20572;-79
2024/01/06 03:36:57;;;;;;;19.60;16.00;;;;;;;3.40;100.00;100379.88;5071169;28;20032;-79
2024/01/06 03:39:22;;;;;;;19.98;15.30;;;;;;;3.40;100.00;100388.63;5067496;28;20028;-80
2024/01/06 03:41:48;;;;;;;18.23;14.32;;;;;;;3.39;100.00;100394.81;5062829;28;20016;-80
2024/01/06 03:44:13;;;;;;;18.52;14.63;;;;;;;3.35;100.00;100398.44;5066900;28;20064;-80
2024/01/06 03:46:39;;;;;;;18.10;14.85;;;;;;;3.31;100.00;100396.78;5070081;28;20094;-79
2024/01/06 03:49:04;;;;;;;16.33;13.32;;;;;;;3.30;100.00;100410.84;5059480;28;20442;-80
2024/01/06 03:51:30;;;;;;;12.95;11.55;;;;;;;3.27;100.00;100405.69;5069886;28;20059;-79
2024/01/06 03:53:55;;;;;;;13.30;11.90;;;;;;;3.18;100.00;100411.19;5056491;28;20024;-80
2024/01/06 03:56:20;;;;;;;15.20;12.50;;;;;;;3.20;100.00;100419.91;5063197;28;20317;-80
2024/01/06 03:58:46;;;;;;;12.93;11.52;;;;;;;3.18;100.00;100419.09;5057158;28;20012;-79
2024/01/06 04:01:11;;;;;;;11.52;10.02;;;;;;;3.09;100.00;100414.06;5058485;28;20040;-79
2024/01/06 04:03:38;;;;;;;10.77;9.70;;;;;;;3.15;100.00;100424.44;5065895;28;20031;-79
2024/01/06 04:06:04;;;;;;;11.50;9.98;;;;;;;3.15;100.00;100430.53;5062312;28;20359;-80
2024/01/06 04:08:29;;;;;;;9.18;8.27;;;;;;;3.13;100.00;100428.84;5058836;28;20031;-80
2024/01/06 04:10:55;;;;;;;9.65;8.65;;;;;;;3.14;100.00;100435.84;5071749;28;20038;-79
2024/01/06 04:13:20;;;;;;;10.52;9.43;;;;;;;3.15;100.00;100430.53;5060828;28;20055;-79
2024/01/06 04:15:45;;;;;;;10.13;9.13;;;;;;;3.08;100.00;100428.13;5069781;28;20109;-80
2024/01/06 04:18:11;;;;;;;11.07;9.88;;;;;;;3.07;100.00;100429.88;5059539;28;20031;-79
2024/01/06 04:20:36;;;;;;;10.75;9.75;;;;;;;3.12;100.00;100435.88;5065361;28;20401;-80
2024/01/06 04:23:02;;;;;;;11.43;10.32;;;;;;;3.09;100.00;100437.72;5064955;28;20032;-80
2024/01/06 04:25:27;;;;;;;11.10;10.10;;;;;;;3.10;100.00;100450.84;5063867;28;20029;-80
2024/01/06 04:27:52;;;;;;;11.15;9.98;;;;;;;3.04;100.00;100443.09;5060157;28;20033;-80
2024/01/06 04:30:19;;;;;;;11.52;10.40;;;;;;;3.04;100.00;100452.75;5061645;28;20029;-80
2024/01/06 04:32:44;;;;;;;11.57;10.48;;;;;;;3.04;100.00;100455.38;5066490;28;20044;-80
2024/01/06 04:35:10;;;;;;;12.50;11.25;;;;;;;3.05;100.00;100454.47;5055014;28;20101;-80
2024/01/06 04:37:35;;;;;;;12.85;11.50;;;;;;;3.02;100.00;100455.44;5065676;28;20028;-80
2024/01/06 04:40:01;;;;;;;13.57;12.18;;;;;;;3.00;100.00;100458.09;5062022;28;20039;-80
2024/01/06 04:42:27;;;;;;;13.48;12.10;;;;;;;2.98;100.00;100459.91;5062130;28;20443;-80
2024/01/06 04:44:52;;;;;;;14.23;12.85;;;;;;;2.98;100.00;100465.16;5067363;28;20416;-78
2024/01/06 04:47:18;;;;;;;14.68;13.18;;;;;;;2.91;100.00;100460.97;5064021;28;20024;-79
2024/01/06 04:49:44;;;;;;;14.40;12.73;;;;;;;2.97;100.00;100473.09;5062123;28;20028;-80
2024/01/06 04:52:09;;;;;;;14.07;12.63;;;;;;;2.96;100.00;100469.59;5073027;28;20237;-80
2024/01/06 04:54:35;;;;;;;14.75;12.85;;;;;;;2.93;100.00;100463.56;5067209;28;20024;-80
2024/01/06 04:57:00;;;;;;;14.02;12.55;;;;;;;2.98;100.00;100475.69;5061840;28;20028;-80
2024/01/06 04:59:25;;;;;;;14.35;12.82;;;;;;;2.87;100.00;100472.47;5059333;28;20042;-80
2024/01/06 05:01:51;;;;;;;15.70;13.75;;;;;;;2.93;100.00;100480.19;5064073;28;20044;-80
2024/01/06 05:04:17;;;;;;;15.10;13.50;;;;;;;2.91;100.00;100479.38;5064917;28;20038;-79
2024/01/06 05:06:43;;;;;;;12.85;11.50;;;;;;;2.89;100.00;100486.44;5060031;28;20032;-80
2024/01/06 05:09:08;;;;;;;12.27;10.98;;;;;;;2.86;100.00;100485.66;5062732;28;20032;-80
2024/01/06 05:11:33;;;;;;;12.40;11.05;;;;;;;2.90;100.00;100498.66;5061887;28;20024;-80
2024/01/06 05:13:59;;;;;;;12.60;11.30;;;;;;;2.92;100.00;100494.22;5063474;28;20035;-80
2024/01/06 05:16:24;;;;;;;13.23;11.82;;;;;;;2.90;100.00;100498.66;5105550;27;20028;-80
2024/01/06 05:18:50;;;;;;;14.07;12.23;;;;;;;2.93;100.00;100495.97;5057308;28;20024;-80
2024/01/06 05:21:15;;;;;;;13.30;11.90;;;;;;;2.93;100.00;100503.00;5065050;28;20526;-80
2024/01/06 05:23:43;;;;;;;12.60;11.30;;;;;;;2.93;100.00;100503.00;5060501;28;20032;-79
2024/01/06 05:26:09;;;;;;;12.05;10.85;;;;;;;2.84;100.00;100497.94;5060443;28;20032;-80
2024/01/06 05:28:34;;;;;;;12.07;10.88;;;;;;;2.90;100.00;100511.81;5063574;28;20009;-80
2024/01/06 05:30:59;;;;;;;12.00;10.90;;;;;;;2.86;100.00;100499.66;5059293;28;20035;-80
2024/01/06 05:33:25;;;;;;;11.48;10.30;;;;;;;2.80;100.00;100491.03;5067275;28;20099;-79
2024/01/06 05:35:50;;;;;;;12.02;10.82;;;;;;;2.82;100.00;100499.75;5065832;28;20028;-80
2024/01/06 05:38:17;;;;;;;12.15;10.95;;;;;;;2.81;100.00;100501.53;5061506;28;20107;-80
2024/01/06 05:40:42;;;;;;;12.55;11.25;;;;;;;2.85;100.00;100521.59;5061210;28;20031;-79
2024/01/06 05:43:08;;;;;;;11.43;10.27;;;;;;;2.88;100.00;100528.50;5064727;28;20040;-79
2024/01/06 05:45:33;;;;;;;11.20;10.10;;;;;;;2.85;100.00;100520.72;5075062;28;20146;-80
2024/01/06 05:47:58;;;;;;;10.38;9.38;;;;;;;2.84;100.00;100527.72;5061423;28;20070;-79
2024/01/06 05:50:24;;;;;;;11.43;10.23;;;;;;;2.76;100.00;100519.19;5062129;28;20613;-80
2024/01/06 05:52:50;;;;;;;11.10;10.00;;;;;;;2.78;100.00;100522.63;5064748;28;20025;-80
2024/01/06 05:55:15;;;;;;;11.57;10.20;;;;;;;2.80;100.00;100538.34;5065212;28;20028;-80
2024/01/06 05:57:41;;;;;;;10.88;9.77;;;;;;;2.79;100.00;100534.00;5062902;28;20020;-80
2024/01/06 06:00:13;;;;;;;10.38;9.38;;;;;;;2.67;100.00;100527.25;5059262;28;20416;-79
2024/01/06 06:02:39;;;;;;;9.82;8.93;;;;;;;2.77;100.00;100543.69;5062061;28;20114;-79
2024/01/06 06:05:05;;;;;;;10.25;9.10;;;;;;;2.71;100.00;100534.19;5062157;28;20372;-80
2024/01/06 06:07:30;;;;;;;9.75;8.80;;;;;;;2.62;100.00;100523.88;5067311;28;20032;-80
2024/01/06 06:09:55;;;;;;;10.18;9.18;;;;;;;2.75;100.00;100547.19;5064158;28;20100;-80
2024/01/06 06:12:20;;;;;;;10.63;9.52;;;;;;;2.75;100.00;100556.84;5062835;28;20082;-79
2024/01/06 06:14:46;;;;;;;10.05;9.00;;;;;;;2.74;100.00;100558.63;5061236;28;20493;-80
2024/01/06 06:17:11;;;;;;;10.32;9.30;;;;;;;2.74;100.00;100563.03;5061980;28;20057;-79
2024/01/06 06:19:36;;;;;;;11.13;9.80;;;;;;;2.72;100.00;100563.06;5062693;28;20062;-80
2024/01/06 06:22:02;;;;;;;10.65;9.60;;;;;;;2.67;100.00;100562.28;5060997;28;20021;-80
2024/01/06 06:24:27;;;;;;;10.98;9.60;;;;;;;2.75;100.00;100577.88;5064483;28;20508;-80
2024/01/06 06:26:52;;;;;;;10.30;9.20;;;;;;;2.75;100.00;100580.50;5074573;28;20110;-79
2024/01/06 06:29:18;;;;;;;10.23;9.18;;;;;;;2.71;100.00;100592.00;5061932;28;20043;-79
2024/01/06 06:31:44;;;;;;;10.00;9.00;;;;;;;2.72;100.00;100583.22;5063991;28;20013;-80
2024/01/06 06:34:10;;;;;;;9.65;8.60;;;;;;;2.74;100.00;100586.66;5067356;28;20115;-79
2024/01/06 06:36:36;;;;;;;11.32;9.10;;;;;;;2.64;100.00;100579.91;5061698;28;20026;-79
2024/01/06 06:39:01;;;;;;;10.18;9.20;;;;;;;2.74;100.00;100597.19;5062173;28;20424;-80
2024/01/06 06:41:26;;;;;;;10.07;8.93;;;;;;;2.71;100.00;100608.63;5060991;28;20025;-80
2024/01/06 06:43:52;;;;;;;11.50;10.27;;;;;;;2.61;100.00;100585.22;5069664;28;20063;-79
2024/01/06 06:46:17;;;;;;;10.40;9.30;;;;;;;2.65;100.00;100607.91;5061978;28;20099;-80
2024/01/06 06:48:42;;;;;;;11.38;10.18;;;;;;;2.65;100.00;100618.41;5069494;28;20020;-79
2024/01/06 06:51:08;;;;;;;11.50;9.85;;;;;;;2.58;100.00;100616.81;5066144;28;20032;-80
2024/01/06 06:53:33;;;;;;;12.05;10.00;;;;;;;2.61;100.00;100622.00;5071144;28;20063;-80
2024/01/06 06:55:58;;;;;;;10.55;9.45;;;;;;;2.60;100.00;100625.53;5068969;28;20441;-80
2024/01/06 06:58:24;;;;;;;10.90;9.80;;;;;;;2.57;100.00;100628.22;5062491;28;20020;-81
2024/01/06 07:00:49;;;;;;;10.82;9.73;;;;;;;2.53;100.00;100624.81;5069354;28;20048;-81
2024/01/06 07:03:14;;;;;;;10.23;8.77;;;;;;;2.53;100.00;100634.44;5076050;28;20058;-80
2024/01/06 07:05:40;;;;;;;9.57;8.68;;;;;;;2.56;100.00;100644.91;5096518;27;20021;-80
2024/01/06 07:08:05;;;;;;;8.95;8.05;;;;;;;2.52;100.00;100637.97;5072244;28;20036;-81
2024/01/06 07:10:31;;;;;;;8.70;7.80;;;;;;;2.54;100.00;100650.16;5069542;28;20132;-80
2024/01/06 07:12:56;;;;;;;9.30;8.40;;;;;;;2.57;100.00;100662.38;5065745;28;20035;-80
2024/01/06 07:15:21;;;;;;;9.27;8.38;;;;;;;2.49;100.00;100655.53;5095670;27;20413;-80
2024/01/06 07:17:47;;;;;;;10.15;9.00;;;;;;;2.50;100.00;100669.53;5057352;28;20052;-80
2024/01/06 07:20:13;;;;;;;9.88;8.88;;;;;;;2.58;100.00;100674.63;5060796;28;20032;-80
2024/01/06 07:22:38;;;;;;;11.57;10.38;;;;;;;2.57;100.00;100675.53;5058735;28;20694;-81
2024/01/06 07:25:05;;;;;;;12.30;10.45;;;;;;;2.53;100.00;100679.13;5071642;28;20164;-81
2024/01/06 07:27:30;;;;;;;11.95;10.73;;;;;;;2.40;100.00;100674.09;5058964;28;20150;-80
2024/01/06 07:29:56;;;;;;;12.52;11.23;;;;;;;2.50;100.00;100687.91;5059242;28;20099;-80
2024/01/06 07:32:22;;;;;;;12.50;10.27;;;;;;;2.51;100.00;100689.66;5094595;28;20032;-80
2024/01/06 07:34:48;;;;;;;12.38;11.07;;;;;;;2.48;100.00;100690.56;5071844;28;20026;-81
2024/01/06 07:37:13;;;;;;;13.10;11.73;;;;;;;2.44;100.00;100690.69;5067401;28;20181;-80
2024/01/06 07:39:38;;;;;;;13.50;11.38;;;;;;;2.44;100.00;100696.78;5072132;28;20040;-79
2024/01/06 07:42:04;;;;;;;12.40;11.00;;;;;;;2.43;100.00;100695.06;5061371;28;20455;-79
2024/01/06 07:44:29;;;;;;;12.25;10.93;;;;;;;2.44;100.00;100699.41;5062978;28;20467;-79
2024/01/06 07:46:54;;;;;;;14.23;11.85;;;;;;;2.45;100.00;100695.88;5067059;28;20024;-79
2024/01/06 07:49:20;;;;;;;13.77;12.20;;;;;;;2.48;100.00;100708.09;5062559;28;20054;-79
2024/01/06 07:51:46;;;;;;;16.58;13.55;;;;;;;2.47;100.00;100715.13;5063259;28;20078;-79
2024/01/06 07:54:12;;;;;;;17.13;13.68;;;;;;;2.42;100.00;100701.19;5061722;28;20037;-79
2024/01/06 07:56:38;;;;;;;15.95;12.65;;;;;;;2.41;100.00;100709.13;5066110;28;20032;-80
2024/01/06 07:59:04;;;;;;;16.20;13.15;;;;;;;2.39;100.00;100706.53;5056279;28;20056;-79
2024/01/06 08:01:29;;;;;;;18.23;13.32;;;;;;;2.38;100.00;100707.44;5076049;28;20123;-79
2024/01/06 08:03:55;;;;;;;15.73;13.10;;;;;;;2.44;100.00;100716.94;5069738;28;20112;-79
2024/01/06 08:06:20;;;;;;;19.80;13.93;;;;;;;2.49;100.00;100736.09;5061952;28;20036;-79
2024/01/06 08:08:45;;;;;;;17.98;14.80;;;;;;;2.47;100.00;100730.03;5075679;28;20658;-79
2024/01/06 08:11:11;;;;;;;18.05;14.73;;;;;;;2.42;100.00;100727.47;5072595;28;20044;-79
2024/01/06 08:13:37;;;;;;;18.50;15.57;;;;;;;2.48;100.00;100742.25;5061400;28;20427;-80
2024/01/06 08:16:03;;;;;;;18.63;14.95;;;;;;;2.43;100.00;100739.72;5062128;28;20017;-80
2024/01/06 08:18:29;;;;;;;18.92;14.13;;;;;;;2.48;100.00;100748.38;5062071;28;20135;-80
2024/01/06 08:20:54;;;;;;;19.30;14.88;;;;;;;2.43;100.00;100737.09;5064822;28;20115;-80
2024/01/06 08:23:20;;;;;;;18.52;14.02;;;;;;;2.56;100.00;100753.50;5056462;28;20611;-80
2024/01/06 08:25:46;;;;;;;18.33;14.52;;;;;;;2.59;100.00;100756.06;5067324;28;20058;-80
2024/01/06 08:28:12;;;;;;;17.02;14.52;;;;;;;2.63;100.00;100762.97;5063925;28;20027;-80
2024/01/06 08:30:37;;;;;;;18.10;14.80;;;;;;;2.65;100.00;100770.84;5058705;28;20037;-80
2024/01/06 08:33:03;;;;;;;19.17;14.13;;;;;;;2.68;100.00;100776.91;5064454;28;20031;-80
2024/01/06 08:35:28;;;;;;;19.23;13.63;;;;;;;2.70;100.00;100784.75;5066196;28;20492;-80
2024/01/06 08:37:54;;;;;;;16.77;13.70;;;;;;;2.62;100.00;100768.25;5062300;28;20101;-80
2024/01/06 08:40:19;;;;;;;16.65;14.43;;;;;;;2.59;100.00;100765.69;5064189;28;20032;-80
2024/01/06 08:42:44;;;;;;;15.63;13.68;;;;;;;2.64;100.00;100771.75;5064131;28;20109;-80
2024/01/06 08:45:10;;;;;;;16.67;14.63;;;;;;;2.70;100.00;100790.00;5060964;28;20058;-80
2024/01/06 08:47:35;;;;;;;17.60;15.38;;;;;;;2.71;100.00;100789.97;5065253;28;20043;-80
2024/01/06 08:50:00;;;;;;;18.13;14.40;;;;;;;2.69;100.00;100791.75;5061754;28;20059;-80
2024/01/06 08:52:26;;;;;;;18.02;15.05;;;;;;;2.60;100.00;100789.31;5071183;28;20063;-80
2024/01/06 08:54:51;;;;;;;18.02;14.65;;;;;;;2.65;100.00;100802.38;5064123;28;20030;-80
2024/01/06 08:57:17;;;;;;;17.70;13.90;;;;;;;2.58;100.00;100791.09;5063566;28;20499;-80
2024/01/06 08:59:43;;;;;;;17.75;15.02;;;;;;;2.60;100.00;100809.47;5059834;28;20034;-80
2024/01/06 09:02:09;;;;;;;18.08;14.77;;;;;;;2.50;100.00;100814.88;5063952;28;20056;-80
2024/01/06 09:04:34;;;;;;;20.02;14.95;;;;;;;2.56;100.00;100826.19;5067693;28;20042;-79
2024/01/06 09:06:59;;;;;;;16.38;14.57;;;;;;;2.48;100.00;100821.94;5065186;28;20385;-80
2024/01/06 09:09:25;;;;;;;19.52;15.88;;;;;;;2.45;100.00;100827.22;5067533;28;20020;-80
2024/01/06 09:11:50;;;;;;;17.83;15.27;;;;;;;2.45;100.00;100827.22;5054553;28;20024;-80
2024/01/06 09:14:18;;;;;;;18.85;14.95;;;;;;;2.45;100.00;100827.22;5064656;28;20052;-80
2024/01/06 09:16:43;;;;;;;15.85;14.15;;;;;;;2.45;100.00;100821.97;5057057;28;20028;-81
2024/01/06 09:19:09;;;;;;;17.40;15.55;;;;;;;2.53;100.00;100837.63;5053900;28;20029;-78
2024/01/06 09:21:35;;;;;;;18.23;14.88;;;;;;;2.53;100.00;100829.72;5083607;28;20568;-79
2024/01/06 09:24:05;;;;;;;19.48;15.75;;;;;;;2.55;100.00;100824.44;5058071;28;20032;-80
2024/01/06 09:26:31;;;;;;;18.58;15.80;;;;;;;2.60;100.00;100844.50;5063583;28;20029;-79
2024/01/06 09:28:56;;;;;;;18.52;15.60;;;;;;;2.62;100.00;100850.59;5051626;28;20090;-79
2024/01/06 09:31:21;;;;;;;17.25;14.85;;;;;;;2.65;100.00;100849.66;5059952;28;20703;-79
2024/01/06 09:33:49;;;;;;;19.23;15.55;;;;;;;2.67;100.00;100853.97;5062659;28;20035;-80
2024/01/06 09:36:15;;;;;;;16.17;14.00;;;;;;;2.62;100.00;100855.84;5059865;28;20024;-80
2024/01/06 09:38:40;;;;;;;16.17;14.10;;;;;;;2.47;100.00;100840.38;5063595;28;20461;-79
2024/01/06 09:41:06;;;;;;;17.25;14.38;;;;;;;2.60;100.00;100864.66;5061757;28;20169;-79
2024/01/06 09:43:32;;;;;;;15.68;14.07;;;;;;;2.57;100.00;100865.56;5063377;28;20167;-79
2024/01/06 09:46:05;;;;;;;16.77;14.68;;;;;;;2.47;100.00;100853.50;5060301;28;20111;-80
2024/01/06 09:48:35;;;;;;;17.20;14.63;;;;;;;2.47;100.00;100869.25;5061282;28;20090;-79
2024/01/06 09:51:03;;;;;;;17.00;15.20;;;;;;;2.57;100.00;100888.34;5063969;28;20513;-81
2024/01/06 09:53:36;;;;;;;16.02;14.35;;;;;;;2.53;100.00;100881.41;5064622;28;20032;-80
2024/01/06 09:56:02;;;;;;;17.38;15.25;;;;;;;2.59;100.00;100887.44;5054892;28;20389;-80
2024/01/06 09:58:29;;;;;;;17.08;15.07;;;;;;;2.58;100.00;100892.72;5068995;28;20471;-80
2024/01/06 10:00:56;;;;;;;17.65;15.82;;;;;;;2.60;100.00;100897.06;5058483;28;20127;-80
2024/01/06 10:03:21;;;;;;;17.58;15.77;;;;;;;2.57;100.00;100893.59;5065876;28;20028;-80
2024/01/06 10:05:48;;;;;;;15.38;13.88;;;;;;;2.61;100.00;100914.56;5056319;28;20024;-80
2024/01/06 10:08:13;;;;;;;16.33;14.07;;;;;;;2.66;100.00;100914.47;5056514;28;20443;-79
2024/01/06 10:10:39;;;;;;;15.43;13.70;;;;;;;2.64;100.00;100916.28;5058686;28;20024;-81
2024/01/06 10:13:06;;;;;;;15.30;13.73;;;;;;;2.69;100.00;100919.69;5062483;28;20052;-79
2024/01/06 10:15:31;;;;;;;16.00;13.70;;;;;;;2.67;100.00;100919.69;5065751;28;20532;-79
2024/01/06 10:17:57;;;;;;;13.50;12.20;;;;;;;2.64;100.00;100930.28;5059288;28;20059;-80
2024/01/06 10:20:22;;;;;;;12.82;11.63;;;;;;;2.64;100.00;100926.78;5054106;28;20203;-81
2024/01/06 10:22:48;;;;;;;13.98;12.57;;;;;;;2.61;100.00;100930.31;5046075;28;20029;-79
2024/01/06 10:25:14;;;;;;;13.48;12.25;;;;;;;2.65;100.00;100932.00;5071155;28;20714;-79
2024/01/06 10:27:44;;;;;;;14.18;12.77;;;;;;;2.69;100.00;100932.81;5069032;28;20090;-79
2024/01/06 10:30:10;;;;;;;12.63;11.43;;;;;;;2.61;100.00;100929.44;5060196;28;20149;-79
2024/01/06 10:32:36;;;;;;;12.50;11.30;;;;;;;2.64;100.00;100932.91;5062995;28;20328;-78
2024/01/06 10:35:03;;;;;;;13.52;12.23;;;;;;;2.64;100.00;100934.66;5064757;28;20039;-78
2024/01/06 10:37:29;;;;;;;14.23;12.73;;;;;;;2.66;100.00;100933.72;5066144;28;20032;-79
2024/01/06 10:40:11;;;;;;;13.50;12.18;;;;;;;2.68;100.00;100938.97;5061207;28;20047;-79
2024/01/06 10:42:39;;;;;;;13.55;12.15;;;;;;;2.62;100.00;100939.94;5058980;28;20546;-79
2024/01/06 10:45:08;;;;;;;14.10;12.63;;;;;;;2.59;100.00;100933.84;5077319;28;20070;-79
2024/01/06 10:47:35;;;;;;;14.20;12.30;;;;;;;2.69;100.00;100946.81;5068154;28;20819;-79
2024/01/06 10:50:01;;;;;;;13.40;12.10;;;;;;;2.64;100.00;100945.19;5061962;28;20382;-79
2024/01/06 10:52:27;;;;;;;14.95;12.82;;;;;;;2.65;100.00;100954.78;5072670;28;20039;-79
2024/01/06 10:54:54;;;;;;;13.48;12.15;;;;;;;2.56;100.00;100944.44;5063150;28;20032;-80
2024/01/06 10:57:20;;;;;;;13.68;12.32;;;;;;;2.63;100.00;100951.31;5065643;28;20054;-80
2024/01/06 10:59:49;;;;;;;14.07;12.57;;;;;;;2.53;100.00;100937.47;5058620;28;20032;-80
2024/01/06 11:02:18;;;;;;;12.70;11.40;;;;;;;2.62;100.00;100954.81;5059130;28;20044;-79
2024/01/06 11:04:46;;;;;;;13.95;12.50;;;;;;;2.66;100.00;100957.38;5068840;28;20374;-80